Time;durP1;ratioP1;P1;durP2;ratioP2;P2;SDS_P1;SDS_P2;PMS_P1;PMS_P2;Temp;Humidity;BMP_temperature;BMP_pressure;BME280_temperature;BME280_humidity;BME280_pressure;Samples;Min_cycle;Max_cycle;Signal;HPM_P1;HPM_P2
2023/12/17 00:01:04;;;;;;;;;;;;;;;6.76;100.00;102013.53;4963835;28;19922;-90
2023/12/17 00:03:30;;;;;;;;;;;;;;;6.76;100.00;102022.31;4963145;28;19933;-83
2023/12/17 00:05:57;;;;;;;;;;;;;;;6.79;100.00;102029.34;4964152;28;20443;-80
2023/12/17 00:08:22;;;;;;;;;;;;;;;6.75;100.00;102024.91;4964875;28;19926;-87
2023/12/17 00:10:50;;;;;;;;;;;;;;;6.76;100.00;102021.44;4964170;28;19918;-83
2023/12/17 00:13:16;;;;;;;;;;;;;;;6.75;100.00;102017.00;4964679;28;19965;-80
2023/12/17 00:15:41;;;;;;;;;;;;;;;6.74;100.00;102013.50;4963764;28;19968;-81
2023/12/17 00:18:07;;;;;;;;;;;;;;;6.74;100.00;102013.50;4970739;28;20293;-79
2023/12/17 00:20:32;;;;;;;;;;;;;;;6.76;100.00;102009.13;4963914;28;19937;-82
2023/12/17 00:22:57;;;;;;;;;;;;;;;6.73;100.00;101999.47;4964613;28;19969;-81
2023/12/17 00:25:23;;;;;;;;;;;;;;;6.76;100.00;102001.22;4963625;28;19981;-82
2023/12/17 00:27:48;;;;;;;;;;;;;;;6.73;100.00;101999.47;4963439;28;19928;-85
2023/12/17 00:30:13;;;;;;;;;;;;;;;6.73;100.00;101996.81;4964128;28;19931;-84
2023/12/17 00:32:42;;;;;;;;;;;;;;;6.75;100.00;101990.66;4962987;28;20017;-85
2023/12/17 00:35:10;;;;;;;;;;;;;;;6.75;100.00;101985.41;4963481;28;19918;-88
2023/12/17 00:37:36;;;;;;;;;;;;;;;6.74;100.00;101989.78;4964025;28;19926;-83
2023/12/17 00:40:01;;;;;;;;;;;;;;;6.76;100.00;101982.78;4963731;28;19968;-82
2023/12/17 00:42:26;;;;;;;;;;;;;;;6.76;100.00;101979.25;4962909;28;19981;-80
2023/12/17 00:44:51;;;;;;;;;;;;;;;6.77;100.00;101983.69;4962616;28;20383;-84
2023/12/17 00:47:16;;;;;;;;;;;;;;;6.77;100.00;101988.94;4961940;28;19933;-85
2023/12/17 00:49:42;;;;;;;;;;;;;;;6.76;100.00;101992.44;4962785;28;20004;-83
2023/12/17 00:52:07;;;;;;;;;;;;;;;6.76;100.00;101989.81;4962304;28;20020;-84
2023/12/17 00:54:32;;;;;;;;;;;;;;;7.38;100.00;101980.56;4963505;28;19926;-90
2023/12/17 00:56:57;;;;;;;;;;;;;;;6.88;100.00;101982.00;4961091;28;19922;-86
2023/12/17 00:59:23;;;;;;;;;;;;;;;5.40;100.00;101986.56;4964858;28;20838;-87
2023/12/17 01:01:48;;;;;;;;;;;;;;;4.91;100.00;101991.09;4963176;28;19968;-91
2023/12/17 01:04:16;;;;;;;;;;;;;;;4.71;100.00;101990.81;4963215;28;20086;-88
2023/12/17 01:06:42;;;;;;;;;;;;;;;4.53;100.00;101984.38;4965330;28;19925;-91
2023/12/17 01:09:07;;;;;;;;;;;;;;;4.37;100.00;101979.69;4963964;28;19930;-88
2023/12/17 01:11:32;;;;;;;;;;;;;;;4.29;100.00;101979.59;4963226;28;19923;-89
2023/12/17 01:13:57;;;;;;;;;;;;;;;4.24;100.00;101972.47;4965931;28;19922;-85
2023/12/17 01:16:23;;;;;;;;;;;;;;;4.15;100.00;101984.59;4962224;28;19926;-85
2023/12/17 01:18:48;;;;;;;;;;;;;;;4.11;100.00;101977.50;4962506;28;19929;-84
2023/12/17 01:21:13;;;;;;;;;;;;;;;4.00;100.00;101973.78;4963066;28;19918;-88
2023/12/17 01:23:39;;;;;;;;;;;;;;;3.98;100.00;101967.63;4964224;28;19918;-86
2023/12/17 01:26:04;;;;;;;;;;;;;;;3.94;100.00;101985.06;4962332;28;19918;-83
2023/12/17 01:28:30;;;;;;;;;;;;;;;3.89;100.00;101980.56;4963883;28;19981;-89
2023/12/17 01:30:55;;;;;;;;;;;;;;;3.85;100.00;101978.75;4963286;28;20503;-87
2023/12/17 01:33:20;;;;;;;;;;;;;;;3.79;100.00;101980.38;4964067;28;19929;-87
2023/12/17 01:35:45;;;;;;;;;;;;;;;3.73;100.00;101979.38;4964069;28;19929;-85
2023/12/17 01:38:11;;;;;;;;;;;;;;;3.68;100.00;101981.91;4962702;28;20093;-84
2023/12/17 01:40:36;;;;;;;;;;;;;;;3.66;100.00;101988.00;4961716;28;20297;-87
2023/12/17 01:43:03;;;;;;;;;;;;;;;3.63;100.00;101996.66;4964795;28;19965;-84
2023/12/17 01:45:28;;;;;;;;;;;;;;;3.60;100.00;101980.88;4961916;28;19926;-84
2023/12/17 09:06:14;;;;;;;;;;;;;;;5.65;100.00;101971.13;5591452;23;19989;-83
2023/12/17 09:08:40;;;;;;;;;;;;;;;5.51;100.00;101968.31;4974065;28;19926;-84
2023/12/17 09:11:08;;;;;;;;;;;;;;;5.50;100.00;101965.66;4956768;28;19953;-82
2023/12/17 09:13:33;;;;;;;;;;;;;;;5.49;100.00;101962.16;4974234;28;19922;-84
2023/12/17 09:15:58;;;;;;;;;;;;;;;5.52;100.00;101967.44;4973999;28;19918;-84
2023/12/17 09:18:24;;;;;;;;;;;;;;;5.48;100.00;101970.03;4973977;28;19918;-84
2023/12/17 09:20:49;;;;;;;;;;;;;;;5.41;100.00;101969.06;4972748;28;19954;-84
2023/12/17 09:23:14;;;;;;;;;;;;;;;5.43;100.00;101962.06;4973889;28;20326;-84
2023/12/17 09:25:39;;;;;;;;;;;;;;;5.42;100.00;101957.66;4973891;28;20333;-84
2023/12/17 09:28:04;;;;;;;;;;;;;;;5.35;100.00;101963.72;4973847;28;19918;-84
2023/12/17 09:30:30;;;;;;;;;;;;;;;5.42;100.00;101961.16;4973782;28;19962;-84
2023/12/17 09:32:55;;;;;;;;;;;;;;;5.51;100.00;101965.69;4973661;28;19925;-86
2023/12/17 09:35:20;;;;;;;;;;;;;;;5.43;100.00;101962.06;4972260;28;20499;-84
2023/12/17 09:37:46;;;;;;;;;;;;;;;5.37;100.00;101967.25;4973493;28;19918;-85
2023/12/17 09:40:12;;;;;;;;;;;;;;;5.41;100.00;101961.19;4973695;28;19929;-85
2023/12/17 09:42:39;;;;;;;;;;;;;;;5.44;100.00;101964.72;4973402;28;19918;-84
2023/12/17 09:45:04;;;;;;;;;;;;;;;5.35;100.00;101958.47;4973538;28;19918;-85
2023/12/17 09:47:29;;;;;;;;;;;;;;;5.38;100.00;101961.13;4973654;28;19941;-85
2023/12/17 09:49:55;;;;;;;;;;;;;;;5.42;100.00;101968.19;4973385;28;19957;-85
2023/12/17 09:52:24;;;;;;;;;;;;;;;5.36;100.00;101961.13;4971618;28;20017;-84
2023/12/17 09:54:51;;;;;;;;;;;;;;;5.36;100.00;101963.75;4973496;28;19918;-85
2023/12/17 09:57:17;;;;;;;;;;;;;;;5.41;100.00;101958.56;4973328;28;20310;-85
2023/12/17 09:59:43;;;;;;;;;;;;;;;5.37;100.00;101951.47;4973351;28;19926;-84
2023/12/17 10:02:15;;;;;;;;;;;;;;;5.32;100.00;101953.16;4955832;28;20329;-86
2023/12/17 10:04:40;;;;;;;;;;;;;;;5.35;100.00;101954.06;4973680;28;19957;-86
2023/12/17 10:07:06;;;;;;;;;;;;;;;5.31;100.00;101956.63;4971983;28;20416;-85
2023/12/17 10:09:37;;;;;;;;;;;;;;;5.33;100.00;101952.28;4973261;28;20340;-86
2023/12/17 10:12:03;;;;;;;;;;;;;;;5.33;100.00;101944.38;4972483;28;19922;-83
2023/12/17 10:14:30;;;;;;;;;;;;;;;5.31;100.00;101933.84;4973178;28;19970;-84
2023/12/17 10:16:55;;;;;;;;;;;;;;;5.30;100.00;101933.84;4973164;28;19922;-83
2023/12/17 10:19:20;;;;;;;;;;;;;;;5.27;100.00;101932.94;4972820;28;20444;-84
2023/12/17 10:21:46;;;;;;;;;;;;;;;5.26;100.00;101931.19;4971840;28;20013;-83
2023/12/17 10:24:11;;;;;;;;;;;;;;;5.27;100.00;101925.06;4973212;28;19957;-83
2023/12/17 10:26:46;;;;;;;;;;;;;;;5.28;100.00;101921.56;4972229;28;20393;-84
2023/12/17 10:29:18;;;;;;;;;;;;;;;5.26;100.00;101925.03;4972165;28;19997;-84
2023/12/17 10:31:44;;;;;;;;;;;;;;;5.26;100.00;101910.16;4972832;28;20365;-85
2023/12/17 10:34:18;;;;;;;;;;;;;;;5.24;100.00;101908.38;4973198;28;20285;-84
2023/12/17 10:36:44;;;;;;;;;;;;;;;5.24;100.00;101903.13;4971579;28;19972;-84
2023/12/17 10:39:11;;;;;;;;;;;;;;;5.22;100.00;101900.47;4955638;28;19922;-84
2023/12/17 10:41:36;;;;;;;;;;;;;;;5.23;100.00;101893.44;4955104;28;20569;-84
2023/12/17 10:44:02;;;;;;;;;;;;;;;5.15;100.00;101892.47;4955387;28;19918;-84
2023/12/17 10:46:28;;;;;;;;;;;;;;;5.21;100.00;101884.66;4973013;28;19918;-84
2023/12/17 10:48:54;;;;;;;;;;;;;;;5.13;100.00;101874.06;4972845;28;19918;-84
2023/12/17 10:51:20;;;;;;;;;;;;;;;5.15;100.00;101874.94;4971663;28;20258;-84
2023/12/17 10:53:45;;;;;;;;;;;;;;;5.12;100.00;101866.16;4972909;28;19965;-84
2023/12/17 13:49:47;;;;;;;;;;;;;;;5.34;100.00;101672.75;4958891;28;19953;-86
2023/12/17 13:52:27;;;;;;;;;;;;;;;5.32;100.00;101664.00;4973845;28;19922;-85
2023/12/17 13:54:52;;;;;;;;;;;;;;;5.32;100.00;101674.50;4956080;28;20365;-84
2023/12/17 13:57:18;;;;;;;;;;;;;;;5.30;100.00;101666.59;4973452;28;19925;-85
2023/12/17 13:59:48;;;;;;;;;;;;;;;5.31;100.00;101668.34;4973397;28;19969;-84
2023/12/17 14:02:14;;;;;;;;;;;;;;;5.31;100.00;101667.47;4971823;28;20009;-87
2023/12/17 14:04:40;;;;;;;;;;;;;;;5.30;100.00;101665.72;4962993;28;20065;-84
2023/12/17 14:07:06;;;;;;;;;;;;;;;5.31;100.00;101663.09;4973289;28;19918;-85
2023/12/17 14:09:31;;;;;;;;;;;;;;;5.34;100.00;101667.50;4955899;28;19933;-85
2023/12/17 14:11:56;;;;;;;;;;;;;;;5.34;100.00;101663.13;4954148;28;19918;-85
2023/12/17 14:14:21;;;;;;;;;;;;;;;5.38;100.00;101661.41;4970782;28;20436;-84
2023/12/17 14:16:47;;;;;;;;;;;;;;;5.35;100.00;101659.63;4972299;28;19922;-84
2023/12/17 14:19:12;;;;;;;;;;;;;;;5.35;100.00;101662.25;4969701;28;19926;-85
2023/12/17 14:21:38;;;;;;;;;;;;;;;5.36;100.00;101657.88;4973018;28;20012;-85
2023/12/17 14:24:03;;;;;;;;;;;;;;;5.33;100.00;101656.13;4973241;28;20258;-85
2023/12/17 14:26:29;;;;;;;;;;;;;;;5.37;100.00;101667.53;4973192;28;19919;-85
2023/12/17 14:28:54;;;;;;;;;;;;;;;5.40;100.00;101663.19;4973090;28;20262;-85
2023/12/17 14:31:26;;;;;;;;;;;;;;;5.34;100.00;101657.00;4973142;28;20429;-89
2023/12/17 14:33:52;;;;;;;;;;;;;;;5.35;100.00;101654.38;4971889;28;20399;-86
2023/12/17 14:36:17;;;;;;;;;;;;;;;5.37;100.00;101655.25;4955096;28;19923;-82
2023/12/17 14:38:42;;;;;;;;;;;;;;;5.36;100.00;101657.88;4975653;28;20357;-82
2023/12/17 14:41:08;;;;;;;;;;;;;;;5.37;100.00;101660.53;4976881;28;19996;-82
2023/12/17 14:43:33;;;;;;;;;;;;;;;5.37;100.00;101651.75;4976743;28;19918;-82
2023/12/17 14:45:59;;;;;;;;;;;;;;;5.39;100.00;101645.66;4976713;28;19977;-81
2023/12/17 14:48:24;;;;;;;;;;;;;;;5.38;100.00;101643.88;4975475;28;20369;-82
2023/12/17 14:51:30;;;;;;;;;;;;;;;5.38;100.00;101649.16;4976435;28;20020;-82
2023/12/17 14:53:56;;;;;;;;;;;;;;;5.38;100.00;101649.16;4976537;28;20395;-82
2023/12/17 14:56:21;;;;;;;;;;;;;;;5.40;100.00;101651.78;4976301;28;19922;-82
2023/12/17 14:58:56;;;;;;;;;;;;;;;5.40;100.00;101647.41;4976631;28;19994;-82
2023/12/17 15:01:22;;;;;;;;;;;;;;;5.40;100.00;101657.06;4976172;28;20334;-82
2023/12/17 15:03:47;;;;;;;;;;;;;;;5.43;100.00;101651.81;4975257;28;19922;-81
2023/12/17 15:06:13;;;;;;;;;;;;;;;5.44;100.00;101648.28;4976511;28;19925;-82
2023/12/17 15:08:39;;;;;;;;;;;;;;;5.43;100.00;101651.81;4976317;28;19918;-82
2023/12/17 15:11:04;;;;;;;;;;;;;;;5.43;100.00;101654.44;4971300;28;19930;-82
2023/12/17 15:13:29;;;;;;;;;;;;;;;5.43;100.00;101651.81;4973804;28;19932;-85
2023/12/17 15:15:54;;;;;;;;;;;;;;;5.44;100.00;101657.09;4973392;28;20282;-82
2023/12/17 15:18:19;;;;;;;;;;;;;;;5.48;100.00;101655.34;4972686;28;19968;-86
2023/12/17 15:20:45;;;;;;;;;;;;;;;5.48;100.00;101649.22;4973440;28;19922;-82
2023/12/17 15:23:10;;;;;;;;;;;;;;;5.48;100.00;101655.34;4958825;28;19965;-83
2023/12/17 15:25:35;;;;;;;;;;;;;;;5.49;100.00;101658.84;4975368;28;19925;-83
2023/12/17 15:28:01;;;;;;;;;;;;;;;5.49;100.00;101659.75;4975980;28;19974;-81
2023/12/17 15:30:26;;;;;;;;;;;;;;;5.48;100.00;101655.34;4975997;28;19960;-81
2023/12/17 15:32:54;;;;;;;;;;;;;;;5.48;100.00;101651.84;4974571;28;19918;-82
2023/12/17 15:35:19;;;;;;;;;;;;;;;5.50;100.00;101663.25;4958634;28;19922;-81
2023/12/17 15:37:46;;;;;;;;;;;;;;;5.48;100.00;101660.63;4975823;28;20370;-82
2023/12/17 15:40:12;;;;;;;;;;;;;;;5.50;100.00;101663.25;4975881;28;19933;-82
2023/12/17 15:42:37;;;;;;;;;;;;;;;5.51;100.00;101663.28;4975152;28;19918;-81
2023/12/17 15:45:02;;;;;;;;;;;;;;;5.50;100.00;101661.50;4975594;28;19922;-82
2023/12/17 15:47:28;;;;;;;;;;;;;;;5.49;100.00;101669.38;4957216;28;19965;-81
2023/12/17 15:49:53;;;;;;;;;;;;;;;5.48;100.00;101665.88;4974435;28;19977;-82
2023/12/17 15:52:18;;;;;;;;;;;;;;;5.48;100.00;101663.25;4958400;28;19957;-81
2023/12/17 15:54:43;;;;;;;;;;;;;;;5.49;100.00;101672.00;4975520;28;20416;-81
2023/12/17 15:57:09;;;;;;;;;;;;;;;5.49;100.00;101672.00;4975542;28;20365;-81
2023/12/17 15:59:35;;;;;;;;;;;;;;;5.48;100.00;101676.41;4975433;28;19918;-81
2023/12/17 16:02:02;;;;;;;;;;;;;;;5.50;100.00;101674.66;4975329;28;19997;-81
2023/12/17 16:04:28;;;;;;;;;;;;;;;5.51;100.00;101668.53;4974205;28;19918;-81
2023/12/17 16:06:53;;;;;;;;;;;;;;;5.50;100.00;101681.66;4975298;28;19922;-81
2023/12/17 16:09:20;;;;;;;;;;;;;;;5.52;100.00;101682.56;4974371;28;19973;-81
2023/12/17 16:11:45;;;;;;;;;;;;;;;5.51;100.00;101675.56;4975174;28;19925;-81
2023/12/17 16:14:10;;;;;;;;;;;;;;;5.52;100.00;101678.19;4975154;28;19922;-81
2023/12/17 16:16:36;;;;;;;;;;;;;;;5.52;100.00;101678.19;4975075;28;19918;-81
2023/12/17 16:19:03;;;;;;;;;;;;;;;5.55;100.00;101677.31;4973886;28;19937;-82
2023/12/17 16:21:29;;;;;;;;;;;;;;;5.53;100.00;101679.94;4975021;28;19981;-81
2023/12/17 16:23:54;;;;;;;;;;;;;;;5.52;100.00;101686.09;4974968;28;19922;-82
2023/12/17 16:26:19;;;;;;;;;;;;;;;5.53;100.00;101682.56;4974962;28;19918;-82
2023/12/17 16:28:46;;;;;;;;;;;;;;;5.54;100.00;101681.72;4974853;28;20539;-81
2023/12/17 16:31:11;;;;;;;;;;;;;;;5.54;100.00;101692.22;4973823;28;19918;-82
2023/12/17 16:33:36;;;;;;;;;;;;;;;5.56;100.00;101682.59;4973436;28;20308;-85
2023/12/17 16:36:02;;;;;;;;;;;;;;;5.58;100.00;101687.88;4974509;28;19922;-81
2023/12/17 16:38:56;;;;;;;;;;;;;;;;;;;;;
2023/12/17 16:41:21;;;;;;;;;;;;;;;5.58;100.00;101680.84;4973794;28;19918;-84
2023/12/17 16:43:46;;;;;;;;;;;;;;;5.56;100.00;101687.84;4974266;28;20013;-81
2023/12/17 16:46:12;;;;;;;;;;;;;;;5.59;100.00;101690.50;4974526;28;19972;-81
2023/12/17 16:48:37;;;;;;;;;;;;;;;5.57;100.00;101689.63;4973058;28;19918;-81
2023/12/17 16:51:02;;;;;;;;;;;;;;;5.57;100.00;101684.38;4974359;28;19926;-81
2023/12/17 16:53:28;;;;;;;;;;;;;;;5.59;100.00;101674.72;4974276;28;19925;-80
2023/12/17 16:55:56;;;;;;;;;;;;;;;5.60;100.00;101673.88;4973695;28;20817;-80
2023/12/17 16:58:21;;;;;;;;;;;;;;;5.62;100.00;101679.13;4949037;28;20293;-83
2023/12/17 17:00:46;;;;;;;;;;;;;;;5.62;100.00;101677.38;4956704;28;19922;-80
2023/12/17 17:03:12;;;;;;;;;;;;;;;5.63;100.00;101673.00;4972948;28;19922;-82
2023/12/17 17:05:37;;;;;;;;;;;;;;;5.66;100.00;101674.78;4948975;28;20412;-81
2023/12/17 17:08:03;;;;;;;;;;;;;;;5.64;100.00;101673.00;4974006;28;19941;-80
2023/12/17 17:10:29;;;;;;;;;;;;;;;5.64;100.00;101674.75;4973954;28;19922;-81
2023/12/17 17:12:54;;;;;;;;;;;;;;;5.62;100.00;101669.50;4974005;28;20004;-81
2023/12/17 17:15:20;;;;;;;;;;;;;;;5.62;100.00;101680.00;4974187;28;19926;-81
2023/12/17 17:17:45;;;;;;;;;;;;;;;5.63;100.00;101675.63;4955463;28;19929;-81
2023/12/17 17:20:10;;;;;;;;;;;;;;;5.63;100.00;101676.53;4973796;28;19922;-80
2023/12/17 17:22:36;;;;;;;;;;;;;;;5.63;100.00;101684.41;4956607;28;19922;-81
2023/12/17 17:25:01;;;;;;;;;;;;;;;5.66;100.00;101683.53;4973705;28;19944;-81
2023/12/17 17:27:45;;;;;;;;;;;;;;;5.65;100.00;101679.16;4973727;28;20014;-81
2023/12/17 17:30:11;;;;;;;;;;;;;;;5.67;100.00;101671.28;4973443;28;19944;-81
2023/12/17 17:32:36;;;;;;;;;;;;;;;5.67;100.00;101684.44;4972629;28;20452;-81
2023/12/17 17:35:04;;;;;;;;;;;;;;;5.68;100.00;101681.81;4973568;28;20013;-81
2023/12/17 17:37:30;;;;;;;;;;;;;;;5.69;100.00;101682.69;4973712;28;20016;-81
2023/12/17 17:39:55;;;;;;;;;;;;;;;5.71;100.00;101686.22;4972596;28;20488;-81
2023/12/17 17:42:20;;;;;;;;;;;;;;;5.68;100.00;101683.53;4973513;28;19929;-81
2023/12/17 17:44:46;;;;;;;;;;;;;;;5.69;100.00;101685.31;4973439;28;19918;-81
2023/12/17 17:47:11;;;;;;;;;;;;;;;5.70;100.00;101687.09;4973214;28;19928;-81
2023/12/17 17:49:36;;;;;;;;;;;;;;;5.70;100.00;101689.72;4946357;28;19964;-81
2023/12/17 17:52:01;;;;;;;;;;;;;;;5.70;100.00;101692.34;4973103;28;19926;-81
2023/12/17 17:54:27;;;;;;;;;;;;;;;5.69;100.00;101687.94;4972680;28;20383;-81
2023/12/17 17:56:52;;;;;;;;;;;;;;;5.72;100.00;101687.97;4973275;28;19918;-80
2023/12/17 17:59:17;;;;;;;;;;;;;;;5.74;100.00;101687.09;4973513;28;20292;-81
2023/12/17 18:01:43;;;;;;;;;;;;;;;5.72;100.00;101685.34;4973258;28;19952;-80
2023/12/17 18:04:08;;;;;;;;;;;;;;;5.74;100.00;101691.50;4972108;28;19918;-81
2023/12/17 18:06:33;;;;;;;;;;;;;;;5.74;100.00;101691.50;4955993;28;19918;-81
2023/12/17 18:09:09;;;;;;;;;;;;;;;5.79;100.00;101689.75;4955678;28;20000;-81
2023/12/17 18:11:34;;;;;;;;;;;;;;;5.75;100.00;101683.63;4955579;28;19940;-80
2023/12/17 18:14:05;;;;;;;;;;;;;;;5.77;100.00;101695.00;4972875;28;20446;-81
2023/12/17 18:16:30;;;;;;;;;;;;;;;5.75;100.00;101690.63;4972550;28;19922;-81
2023/12/17 18:18:55;;;;;;;;;;;;;;;5.77;100.00;101691.50;4970723;28;19918;-80
2023/12/17 18:21:21;;;;;;;;;;;;;;;5.80;100.00;101694.16;4972246;28;19922;-80
2023/12/17 18:23:46;;;;;;;;;;;;;;;5.78;100.00;101695.91;4971858;28;20270;-82
2023/12/17 18:26:19;;;;;;;;;;;;;;;5.81;100.00;101693.31;4972353;28;20119;-80
2023/12/17 18:28:44;;;;;;;;;;;;;;;5.79;100.00;101697.66;4972260;28;19917;-80
2023/12/17 18:31:09;;;;;;;;;;;;;;;5.80;100.00;101694.16;4972102;28;19918;-81
2023/12/17 18:33:35;;;;;;;;;;;;;;;5.81;100.00;101698.56;4970830;28;19914;-81
2023/12/17 18:36:01;;;;;;;;;;;;;;;5.82;100.00;101695.06;4972254;28;19919;-81
2023/12/17 18:38:26;;;;;;;;;;;;;;;5.83;100.00;101689.81;4972015;28;19922;-81
2023/12/17 18:40:54;;;;;;;;;;;;;;;5.82;100.00;101692.41;4972197;28;20357;-80
2023/12/17 18:43:20;;;;;;;;;;;;;;;5.85;100.00;101696.84;4955264;28;19918;-81
2023/12/17 18:45:45;;;;;;;;;;;;;;;5.87;100.00;101705.63;4972052;28;20009;-81
2023/12/17 18:48:10;;;;;;;;;;;;;;;5.88;100.00;101700.38;4970851;28;20448;-81
2023/12/17 18:50:37;;;;;;;;;;;;;;;5.86;100.00;101694.22;4971831;28;19981;-81
2023/12/17 18:53:03;;;;;;;;;;;;;;;5.87;100.00;101696.00;4970816;28;20428;-81
2023/12/17 18:55:30;;;;;;;;;;;;;;;5.88;100.00;101688.97;4971712;28;19922;-84
2023/12/17 18:57:55;;;;;;;;;;;;;;;5.88;100.00;101687.22;4953890;28;19922;-85
2023/12/17 19:00:20;;;;;;;;;;;;;;;5.88;100.00;101686.34;4971609;28;19922;-83
2023/12/17 19:02:45;;;;;;;;;;;;;;;6.18;100.00;101685.69;4970580;28;20360;-79
2023/12/17 19:05:11;;;;;;;;;;;;;;;6.05;100.00;101678.56;4971810;28;19926;-80
2023/12/17 19:07:36;;;;;;;;;;;;;;;5.97;100.00;101682.03;4970765;28;19930;-80
2023/12/17 19:10:01;;;;;;;;;;;;;;;5.95;100.00;101683.75;4970692;28;20297;-79
2023/12/17 19:12:27;;;;;;;;;;;;;;;5.95;100.00;101686.41;4971499;28;20304;-83
2023/12/17 19:14:52;;;;;;;;;;;;;;;5.94;100.00;101675.84;4971801;28;19968;-79
2023/12/17 19:17:17;;;;;;;;;;;;;;;5.95;100.00;101683.75;4970563;28;20297;-82
2023/12/17 19:19:45;;;;;;;;;;;;;;;5.94;100.00;101679.34;4970487;28;20385;-79
2023/12/17 19:22:12;;;;;;;;;;;;;;;5.95;100.00;101678.50;4954184;28;19929;-81
2023/12/17 19:24:37;;;;;;;;;;;;;;;5.96;100.00;101679.38;4971941;28;19923;-80
2023/12/17 19:27:03;;;;;;;;;;;;;;;5.94;100.00;101679.34;4975110;28;19922;-80
2023/12/17 19:29:31;;;;;;;;;;;;;;;5.97;100.00;101681.19;4974776;28;19926;-80
2023/12/17 19:31:57;;;;;;;;;;;;;;;5.99;100.00;101676.78;4974271;28;19957;-86
2023/12/17 19:34:24;;;;;;;;;;;;;;;5.97;100.00;101678.53;4973144;28;20354;-81
2023/12/17 19:36:49;;;;;;;;;;;;;;;5.97;100.00;101674.16;4974488;28;20313;-79
2023/12/17 19:39:14;;;;;;;;;;;;;;;5.95;100.00;101673.22;4974839;28;19922;-80
2023/12/17 19:41:40;;;;;;;;;;;;;;;5.96;100.00;101672.38;4974778;28;19928;-79
2023/12/17 19:44:05;;;;;;;;;;;;;;;5.98;100.00;101675.91;4974555;28;19969;-79
2023/12/17 19:46:30;;;;;;;;;;;;;;;5.99;100.00;101679.44;4974372;28;19922;-80
2023/12/17 19:48:55;;;;;;;;;;;;;;;5.98;100.00;101683.81;4972798;28;19928;-80
2023/12/17 19:51:21;;;;;;;;;;;;;;;6.00;100.00;101682.06;4973206;28;19926;-79
2023/12/17 19:53:46;;;;;;;;;;;;;;;6.00;100.00;101673.31;4973518;28;19976;-81
2023/12/17 19:56:18;;;;;;;;;;;;;;;5.98;100.00;101670.66;4973238;28;19922;-80
2023/12/17 19:58:44;;;;;;;;;;;;;;;6.00;100.00;101671.53;4973556;28;19965;-80
2023/12/17 20:01:12;;;;;;;;;;;;;;;5.99;100.00;101672.41;4973438;28;19926;-80
2023/12/17 20:03:37;;;;;;;;;;;;;;;6.02;100.00;101665.41;4971696;28;20570;-80
2023/12/17 20:06:03;;;;;;;;;;;;;;;6.03;100.00;101667.16;4955375;28;19922;-80
2023/12/17 20:08:30;;;;;;;;;;;;;;;6.04;100.00;101664.53;4972668;28;19926;-80
2023/12/17 20:10:57;;;;;;;;;;;;;;;6.03;100.00;101665.44;4973457;28;19925;-81
2023/12/17 20:13:24;;;;;;;;;;;;;;;6.03;100.00;101656.63;4972723;28;19930;-80
2023/12/17 20:15:49;;;;;;;;;;;;;;;6.03;100.00;101649.63;4955615;28;19922;-84
2023/12/17 20:18:15;;;;;;;;;;;;;;;6.02;100.00;101655.75;4949434;28;19922;-81
2023/12/17 20:20:40;;;;;;;;;;;;;;;6.07;100.00;101650.53;4973075;28;19933;-79
2023/12/17 20:23:06;;;;;;;;;;;;;;;6.08;100.00;101650.53;4972841;28;19925;-80
2023/12/17 20:25:31;;;;;;;;;;;;;;;6.09;100.00;101652.28;4948713;28;19977;-80
2023/12/17 20:27:58;;;;;;;;;;;;;;;6.16;100.00;101655.84;4972639;28;19976;-81
2023/12/17 20:30:24;;;;;;;;;;;;;;;6.15;100.00;101657.56;4972888;28;20456;-80
2023/12/17 20:32:49;;;;;;;;;;;;;;;6.16;100.00;101656.72;4971522;28;20113;-80
2023/12/17 20:35:15;;;;;;;;;;;;;;;6.18;100.00;101669.88;4967438;28;20282;-80
2023/12/17 20:37:40;;;;;;;;;;;;;;;6.16;100.00;101663.75;4954881;28;19926;-80
2023/12/17 20:40:05;;;;;;;;;;;;;;;6.21;100.00;101664.63;4972821;28;20022;-81
2023/12/17 20:42:31;;;;;;;;;;;;;;;6.20;100.00;101659.38;4972557;28;20282;-80
2023/12/17 20:44:56;;;;;;;;;;;;;;;6.20;100.00;101662.00;4972572;28;20498;-80
2023/12/17 20:47:21;;;;;;;;;;;;;;;6.21;100.00;101659.38;4953723;28;20005;-82
2023/12/17 20:51:02;;;;;;;;;;;;;;;6.23;100.00;101657.63;5109015;27;20427;-80
2023/12/17 20:53:27;;;;;;;;;;;;;;;6.26;100.00;101662.91;5090150;28;19919;-80
2023/12/17 20:55:52;;;;;;;;;;;;;;;6.23;100.00;101660.25;5108691;28;19928;-80
2023/12/17 20:58:18;;;;;;;;;;;;;;;6.27;100.00;101663.78;5098491;28;19919;-79
2023/12/17 21:00:43;;;;;;;;;;;;;;;6.26;100.00;101651.50;5108639;28;19930;-80
2023/12/17 21:03:09;;;;;;;;;;;;;;;6.28;100.00;101653.25;5107373;28;19923;-80
2023/12/17 21:05:34;;;;;;;;;;;;;;;6.31;100.00;101644.50;5108443;28;19967;-80
2023/12/17 21:07:59;;;;;;;;;;;;;;;6.31;100.00;101629.56;5108024;28;19981;-80
2023/12/17 21:10:25;;;;;;;;;;;;;;;6.32;100.00;101626.06;5108356;28;20336;-80
2023/12/17 21:12:50;;;;;;;;;;;;;;;6.31;100.00;101626.94;5108722;28;20003;-80
2023/12/17 21:15:15;;;;;;;;;;;;;;;6.32;100.00;101630.47;5107849;28;19931;-79
2023/12/17 21:17:40;;;;;;;;;;;;;;;6.35;100.00;101636.63;5107489;28;20429;-83
2023/12/17 21:20:06;;;;;;;;;;;;;;;6.34;100.00;101640.13;5090003;28;19923;-80
2023/12/17 21:22:31;;;;;;;;;;;;;;;6.36;100.00;101641.00;5108074;28;20022;-87
2023/12/17 21:24:56;;;;;;;;;;;;;;;6.36;100.00;101635.72;5089574;28;19924;-80
2023/12/17 21:27:23;;;;;;;;;;;;;;;6.40;100.00;101630.47;5104248;28;19927;-81
2023/12/17 21:29:50;;;;;;;;;;;;;;;6.40;100.00;101627.84;5107946;28;19943;-80
2023/12/17 21:32:15;;;;;;;;;;;;;;;6.39;100.00;101628.72;5108405;28;19920;-84
2023/12/17 21:34:40;;;;;;;;;;;;;;;6.42;100.00;101631.38;5106561;28;19962;-79
2023/12/17 21:37:05;;;;;;;;;;;;;;;6.41;100.00;101634.88;5108272;28;19920;-80
2023/12/17 21:39:31;;;;;;;;;;;;;;;6.42;100.00;101636.66;5107678;28;20384;-79
2023/12/17 21:41:57;;;;;;;;;;;;;;;6.42;100.00;101647.19;5108173;28;20393;-79
2023/12/17 21:44:23;;;;;;;;;;;;;;;6.43;100.00;101648.91;5089188;28;19927;-79
2023/12/17 21:46:48;;;;;;;;;;;;;;;6.45;100.00;101637.53;5097908;28;19950;-79
2023/12/17 21:49:13;;;;;;;;;;;;;;;6.48;100.00;101641.94;5106628;28;19924;-80
2023/12/17 21:51:39;;;;;;;;;;;;;;;6.47;100.00;101640.16;5107446;28;19931;-80
2023/12/17 21:54:04;;;;;;;;;;;;;;;6.48;100.00;101645.44;5107045;28;19961;-80
2023/12/17 21:56:30;;;;;;;;;;;;;;;6.48;100.00;101650.72;5105407;28;20003;-80
2023/12/17 21:58:55;;;;;;;;;;;;;;;6.52;100.00;101651.59;5089486;28;20286;-79
2023/12/17 22:01:20;;;;;;;;;;;;;;;6.48;100.00;101652.47;5100144;28;20286;-79
2023/12/17 22:03:45;;;;;;;;;;;;;;;6.55;100.00;101646.34;5092871;28;20327;-80
2023/12/17 22:06:11;;;;;;;;;;;;;;;6.49;100.00;101649.84;5094178;28;19942;-80
2023/12/17 22:08:36;;;;;;;;;;;;;;;6.48;100.00;101644.56;5091906;28;20003;-79
2023/12/17 22:11:03;;;;;;;;;;;;;;;6.50;100.00;101645.44;5093989;28;19959;-82
2023/12/17 22:13:28;;;;;;;;;;;;;;;6.49;100.00;101649.84;5092609;28;19924;-82
2023/12/17 22:15:54;;;;;;;;;;;;;;;6.54;100.00;101647.19;5093697;28;20002;-80
2023/12/17 22:18:19;;;;;;;;;;;;;;;6.55;100.00;101648.97;5092580;28;19923;-81
2023/12/17 22:20:45;;;;;;;;;;;;;;;6.55;100.00;101660.38;5075452;28;19924;-79
2023/12/17 22:23:10;;;;;;;;;;;;;;;6.56;100.00;101650.75;5093353;28;21089;-81
2023/12/17 22:25:38;;;;;;;;;;;;;;;6.58;100.00;101656.88;5075278;28;19941;-79
2023/12/17 22:28:05;;;;;;;;;;;;;;;6.59;100.00;101641.94;5094413;28;20379;-80
2023/12/17 22:30:30;;;;;;;;;;;;;;;6.54;100.00;101641.94;5093628;28;20123;-79
2023/12/17 22:32:55;;;;;;;;;;;;;;;6.59;100.00;101639.31;5092580;28;20012;-79
2023/12/17 22:35:20;;;;;;;;;;;;;;;6.59;100.00;101639.31;5094078;28;19916;-80
2023/12/17 22:37:46;;;;;;;;;;;;;;;6.61;100.00;101648.13;5093492;28;20031;-79
2023/12/17 22:40:11;;;;;;;;;;;;;;;6.63;100.00;101641.09;5074823;28;20399;-79
2023/12/17 22:42:37;;;;;;;;;;;;;;;6.59;100.00;101644.59;5093559;28;19923;-79
2023/12/17 22:45:02;;;;;;;;;;;;;;;6.60;100.00;101641.09;5093645;28;20494;-79